Riverside, PA (17868)

03:01 AM EDT del 21 Ottobre 2014 (GMT -0400)
Mahoning Township | Change Station
CLOSE
Current Station
Stazione meteo personale
Location: Danville, PA
Altitudine: 510 ft
Stazioni meteo nelle vicinanze

Alt. 510 ft 40.96 °N, 76.58 °W | Updated 6 minutes ago

Coperto
Coperto
49.1 °F
Sembra 49 °F
N
0.0
Vento Variabile Vento da OSO

Oggi
Massima -- | Minima -- °F
--% Possibilità di precip.
Ieri
Massima -- | Minima -- °F
Precip. -- in
7:24 AM 6:17 PM
Luna calante, 7% visible
Pressione 29.87 in
Visibilità 10.0 miglia
Nuvole Nubi sparse 5500 ft
Molto nuvoloso 7000 ft
Coperto 8000 ft
Raffreddamento del vento 49 °F
Punto di rugiada 46 °F
Umidità 89%
Piovosità 0.00 in
Spessore del manto nevoso Non disponibile.
Raggi UV 0 fuori da 12
Polline .40 fuori da 12
Qualità dell'aria Non disponibile.
Flu Activity Sporadic
METAR KSEG 210653Z AUTO 00000KT 10SM SCT055 BKN070 OVC080 11/07 A2987 RMK AO2 SLP115 T01110072

More Conditions Fewer Conditions

Pressione 29.87 in
Visibilità 10.0 miglia
Nuvole Nubi sparse 5500 ft
Molto nuvoloso 7000 ft
Coperto 8000 ft
Raffreddamento del vento 49 °F
Punto di rugiada 46 °F
Umidità 89%
Piovosità 0.00 in
Spessore del manto nevoso Non disponibile.
Raggi UV 0 fuori da 12
Polline .40 fuori da 12
Qualità dell'aria Non disponibile.
Flu Activity Sporadic
METAR KSEG 210653Z AUTO 00000KT 10SM SCT055 BKN070 OVC080 11/07 A2987 RMK AO2 SLP115 T01110072

More Conditions Fewer Conditions

Nowcast | as of 2:09 am EDT on October 21, 2014

A few bands of showers will be across the Susquehanna valley through 5 am. Some of the showers will be on the heavy side. Most of the activity will be east of a Bloomsburg...York line. The showers are moving northeast at 25 mph.

×

10-Day Weather Forecast

Almanac

Astronomia

Oct. 21, 2014 Alba Tramonto
Ora attuale 07:24 EDT 18:17 EDT
Crepuscolo civile 06:56 EDT 18:44 EDT
Crepuscolo nautico 06:24 EDT 19:16 EDT
Crepuscolo astronomico 05:52 EDT 19:48 EDT
Luna 05:05 EDT 17:10 EDT
Estensione della luce visibile 11h 48m
Lunghezza del giorno
10h 52m
Tomorrow will be 2m 34s shorter.
Luna calante, 7% of the Moon is Illuminated
Oggi
Luna calante
Ott 23
Nuovo
Ott 30
Primo quarto
Nov 6
Luna piena
Nov 14
Ultimo quarto

Gli estremi di oggi

State Highs State Lows

Community

WunderPhotos

Upload Photos

1,763,619 foto caricate!

Nearby

Profondità neve

Stazione Profondità Altitudine
Non sono state evidenziate nuove nevicate

Attività sismica

Città  Distanza Mag. Data & Ora
Non sono state riportate attività sismiche nelle vicinanze.
Minimo Magnitudo Mostrato è 2.5.

Temperature delle acque costiere

Località Temperatura
Nessun dato dalle stazioni

Stazioni meteo nelle vicinanze